sensor_id;sensor_type;location;lat;lon;timestamp;temperature;humidity
47791;DHT22;33547;49.044;1.156;2022-11-18T00:02:20;18.80;65.10
47791;DHT22;33547;49.044;1.156;2022-11-18T00:04:45;18.80;65.10
47791;DHT22;33547;49.044;1.156;2022-11-18T00:07:11;18.80;65.10
47791;DHT22;33547;49.044;1.156;2022-11-18T00:09:37;18.80;65.10
47791;DHT22;33547;49.044;1.156;2022-11-18T00:12:03;18.90;65.10
47791;DHT22;33547;49.044;1.156;2022-11-18T00:14:47;18.80;65.20
47791;DHT22;33547;49.044;1.156;2022-11-18T00:17:13;18.80;65.10
47791;DHT22;33547;49.044;1.156;2022-11-18T00:19:39;18.80;65.10
47791;DHT22;33547;49.044;1.156;2022-11-18T00:22:06;18.80;65.10
47791;DHT22;33547;49.044;1.156;2022-11-18T00:24:34;18.80;65.10
47791;DHT22;33547;49.044;1.156;2022-11-18T00:27:00;18.80;65.10
47791;DHT22;33547;49.044;1.156;2022-11-18T00:29:26;18.80;65.10
47791;DHT22;33547;49.044;1.156;2022-11-18T00:31:53;18.80;65.10
47791;DHT22;33547;49.044;1.156;2022-11-18T00:34:20;18.80;65.20
47791;DHT22;33547;49.044;1.156;2022-11-18T00:36:46;18.80;65.20
47791;DHT22;33547;49.044;1.156;2022-11-18T00:39:14;18.70;65.10
47791;DHT22;33547;49.044;1.156;2022-11-18T00:41:41;18.70;65.10
47791;DHT22;33547;49.044;1.156;2022-11-18T00:44:26;18.70;65.20
47791;DHT22;33547;49.044;1.156;2022-11-18T00:46:52;18.70;65.10
47791;DHT22;33547;49.044;1.156;2022-11-18T00:49:18;18.70;65.20
47791;DHT22;33547;49.044;1.156;2022-11-18T00:51:44;18.70;65.10
47791;DHT22;33547;49.044;1.156;2022-11-18T00:54:10;18.70;65.10
47791;DHT22;33547;49.044;1.156;2022-11-18T00:56:36;18.70;65.20
47791;DHT22;33547;49.044;1.156;2022-11-18T00:59:03;18.70;65.20
47791;DHT22;33547;49.044;1.156;2022-11-18T01:01:29;18.60;65.10
47791;DHT22;33547;49.044;1.156;2022-11-18T01:03:55;18.60;65.00
47791;DHT22;33547;49.044;1.156;2022-11-18T01:06:20;18.60;65.00
47791;DHT22;33547;49.044;1.156;2022-11-18T01:08:46;18.60;64.90
47791;DHT22;33547;49.044;1.156;2022-11-18T01:11:12;18.60;64.80
47791;DHT22;33547;49.044;1.156;2022-11-18T01:13:57;18.60;64.90
47791;DHT22;33547;49.044;1.156;2022-11-18T01:16:24;18.60;65.00
47791;DHT22;33547;49.044;1.156;2022-11-18T01:18:51;18.60;65.00
47791;DHT22;33547;49.044;1.156;2022-11-18T01:21:17;18.60;65.00
47791;DHT22;33547;49.044;1.156;2022-11-18T01:23:43;18.60;64.90
47791;DHT22;33547;49.044;1.156;2022-11-18T01:26:11;18.60;64.90
47791;DHT22;33547;49.044;1.156;2022-11-18T01:28:38;18.60;64.90
47791;DHT22;33547;49.044;1.156;2022-11-18T01:31:06;18.60;65.00
47791;DHT22;33547;49.044;1.156;2022-11-18T01:33:33;18.60;65.00
47791;DHT22;33547;49.044;1.156;2022-11-18T01:35:59;18.60;65.00
47791;DHT22;33547;49.044;1.156;2022-11-18T01:38:26;18.60;65.00
47791;DHT22;33547;49.044;1.156;2022-11-18T01:40:56;18.50;65.00
47791;DHT22;33547;49.044;1.156;2022-11-18T01:43:22;18.50;65.10
47791;DHT22;33547;49.044;1.156;2022-11-18T01:45:51;18.50;66.10
47791;DHT22;33547;49.044;1.156;2022-11-18T01:48:27;18.50;66.30
47791;DHT22;33547;49.044;1.156;2022-11-18T01:51:00;18.50;66.30
47791;DHT22;33547;49.044;1.156;2022-11-18T01:53:32;18.50;66.30
47791;DHT22;33547;49.044;1.156;2022-11-18T01:56:04;18.50;66.30
47791;DHT22;33547;49.044;1.156;2022-11-18T01:58:51;18.50;66.20
47791;DHT22;33547;49.044;1.156;2022-11-18T02:01:20;18.50;66.20
47791;DHT22;33547;49.044;1.156;2022-11-18T02:03:48;18.40;66.40
47791;DHT22;33547;49.044;1.156;2022-11-18T02:06:14;18.40;66.30
47791;DHT22;33547;49.044;1.156;2022-11-18T02:08:41;18.40;66.30
47791;DHT22;33547;49.044;1.156;2022-11-18T02:11:12;18.40;66.20
47791;DHT22;33547;49.044;1.156;2022-11-18T02:13:59;18.40;66.30
47791;DHT22;33547;49.044;1.156;2022-11-18T02:19:18;18.40;66.00
47791;DHT22;33547;49.044;1.156;2022-11-18T02:22:23;18.40;65.90
47791;DHT22;33547;49.044;1.156;2022-11-18T02:31:13;18.40;65.70
47791;DHT22;33547;49.044;1.156;2022-11-18T02:34:00;18.40;65.90
47791;DHT22;33547;49.044;1.156;2022-11-18T02:39:16;18.30;65.70
47791;DHT22;33547;49.044;1.156;2022-11-18T02:42:05;18.30;66.20
47791;DHT22;33547;49.044;1.156;2022-11-18T02:44:36;18.30;65.60
47791;DHT22;33547;49.044;1.156;2022-11-18T02:47:06;18.30;65.80
47791;DHT22;33547;49.044;1.156;2022-11-18T02:49:40;18.30;66.10
47791;DHT22;33547;49.044;1.156;2022-11-18T02:52:09;18.30;66.20
47791;DHT22;33547;49.044;1.156;2022-11-18T02:54:38;18.30;66.70
47791;DHT22;33547;49.044;1.156;2022-11-18T02:57:06;18.30;66.60
47791;DHT22;33547;49.044;1.156;2022-11-18T02:59:33;18.30;66.40
47791;DHT22;33547;49.044;1.156;2022-11-18T03:02:00;18.20;66.30
47791;DHT22;33547;49.044;1.156;2022-11-18T03:04:26;18.20;66.30
47791;DHT22;33547;49.044;1.156;2022-11-18T03:09:45;18.20;66.20
47791;DHT22;33547;49.044;1.156;2022-11-18T03:12:17;18.20;66.80
47791;DHT22;33547;49.044;1.156;2022-11-18T03:20:14;18.20;66.00
47791;DHT22;33547;49.044;1.156;2022-11-18T03:23:09;18.20;66.10
47791;DHT22;33547;49.044;1.156;2022-11-18T03:28:30;18.20;67.80
47791;DHT22;33547;49.044;1.156;2022-11-18T03:31:13;18.20;68.40
47791;DHT22;33547;49.044;1.156;2022-11-18T03:33:57;18.30;67.40
47791;DHT22;33547;49.044;1.156;2022-11-18T03:36:32;18.30;66.90
47791;DHT22;33547;49.044;1.156;2022-11-18T03:39:04;18.40;67.00
47791;DHT22;33547;49.044;1.156;2022-11-18T03:41:35;18.40;67.00
47791;DHT22;33547;49.044;1.156;2022-11-18T03:44:12;18.50;66.60
47791;DHT22;33547;49.044;1.156;2022-11-18T03:46:55;18.50;66.70
47791;DHT22;33547;49.044;1.156;2022-11-18T03:49:56;18.50;66.60
47791;DHT22;33547;49.044;1.156;2022-11-18T03:52:28;18.50;66.70
47791;DHT22;33547;49.044;1.156;2022-11-18T03:54:59;18.60;66.60
47791;DHT22;33547;49.044;1.156;2022-11-18T03:57:55;18.60;67.70
47791;DHT22;33547;49.044;1.156;2022-11-18T04:00:31;18.60;67.70
47791;DHT22;33547;49.044;1.156;2022-11-18T04:02:58;18.60;68.00
47791;DHT22;33547;49.044;1.156;2022-11-18T04:05:25;18.60;67.90
47791;DHT22;33547;49.044;1.156;2022-11-18T04:08:00;18.60;67.40
47791;DHT22;33547;49.044;1.156;2022-11-18T04:10:36;18.60;67.80
47791;DHT22;33547;49.044;1.156;2022-11-18T04:13:18;18.60;68.40
47791;DHT22;33547;49.044;1.156;2022-11-18T04:15:46;18.60;68.30
47791;DHT22;33547;49.044;1.156;2022-11-18T04:18:11;18.60;68.20
47791;DHT22;33547;49.044;1.156;2022-11-18T04:20:38;18.60;68.30
47791;DHT22;33547;49.044;1.156;2022-11-18T04:23:05;18.60;68.30
47791;DHT22;33547;49.044;1.156;2022-11-18T04:25:31;18.60;68.40
47791;DHT22;33547;49.044;1.156;2022-11-18T04:27:58;18.60;68.50
47791;DHT22;33547;49.044;1.156;2022-11-18T04:30:23;18.60;68.50
47791;DHT22;33547;49.044;1.156;2022-11-18T04:32:49;18.60;68.60
47791;DHT22;33547;49.044;1.156;2022-11-18T04:35:15;18.60;68.50
47791;DHT22;33547;49.044;1.156;2022-11-18T04:37:41;18.60;68.50
47791;DHT22;33547;49.044;1.156;2022-11-18T04:40:08;18.50;68.70
47791;DHT22;33547;49.044;1.156;2022-11-18T04:42:34;18.50;68.70
47791;DHT22;33547;49.044;1.156;2022-11-18T04:45:00;18.50;68.80
47791;DHT22;33547;49.044;1.156;2022-11-18T04:47:26;18.50;68.70
47791;DHT22;33547;49.044;1.156;2022-11-18T04:49:52;18.50;68.70
47791;DHT22;33547;49.044;1.156;2022-11-18T04:52:18;18.50;68.70
47791;DHT22;33547;49.044;1.156;2022-11-18T04:54:43;18.50;68.70
47791;DHT22;33547;49.044;1.156;2022-11-18T04:57:09;18.40;68.60
47791;DHT22;33547;49.044;1.156;2022-11-18T04:59:35;18.40;68.60
47791;DHT22;33547;49.044;1.156;2022-11-18T05:02:01;18.50;68.80
47791;DHT22;33547;49.044;1.156;2022-11-18T05:04:30;18.50;68.70
47791;DHT22;33547;49.044;1.156;2022-11-18T05:06:58;18.50;68.90
47791;DHT22;33547;49.044;1.156;2022-11-18T05:09:25;18.50;68.70
47791;DHT22;33547;49.044;1.156;2022-11-18T05:11:52;18.40;68.60
47791;DHT22;33547;49.044;1.156;2022-11-18T05:14:36;18.40;68.50
47791;DHT22;33547;49.044;1.156;2022-11-18T05:17:04;18.40;68.70
47791;DHT22;33547;49.044;1.156;2022-11-18T05:19:31;18.40;68.90
47791;DHT22;33547;49.044;1.156;2022-11-18T05:21:57;18.40;68.60
47791;DHT22;33547;49.044;1.156;2022-11-18T05:24:23;18.50;68.20
47791;DHT22;33547;49.044;1.156;2022-11-18T05:26:50;18.50;67.70
47791;DHT22;33547;49.044;1.156;2022-11-18T05:29:18;18.50;67.50
47791;DHT22;33547;49.044;1.156;2022-11-18T05:31:45;18.60;67.20
47791;DHT22;33547;49.044;1.156;2022-11-18T05:34:13;18.70;67.20
47791;DHT22;33547;49.044;1.156;2022-11-18T05:36:39;18.70;67.20
47791;DHT22;33547;49.044;1.156;2022-11-18T05:39:05;18.70;67.10
47791;DHT22;33547;49.044;1.156;2022-11-18T05:41:31;18.70;67.10
47791;DHT22;33547;49.044;1.156;2022-11-18T05:44:15;18.80;67.10
47791;DHT22;33547;49.044;1.156;2022-11-18T05:46:41;18.80;67.20
47791;DHT22;33547;49.044;1.156;2022-11-18T05:49:07;18.80;67.20
47791;DHT22;33547;49.044;1.156;2022-11-18T05:51:34;18.90;67.20
47791;DHT22;33547;49.044;1.156;2022-11-18T05:54:03;18.90;67.30
47791;DHT22;33547;49.044;1.156;2022-11-18T05:56:37;18.90;67.20
47791;DHT22;33547;49.044;1.156;2022-11-18T05:59:05;19.00;67.30
47791;DHT22;33547;49.044;1.156;2022-11-18T06:01:39;19.00;67.30
47791;DHT22;33547;49.044;1.156;2022-11-18T06:04:40;19.00;67.30
47791;DHT22;33547;49.044;1.156;2022-11-18T06:07:24;19.00;67.20
47791;DHT22;33547;49.044;1.156;2022-11-18T06:10:17;19.00;67.10
47791;DHT22;33547;49.044;1.156;2022-11-18T06:12:51;19.10;67.30
47791;DHT22;33547;49.044;1.156;2022-11-18T06:15:31;19.10;67.30
47791;DHT22;33547;49.044;1.156;2022-11-18T06:18:22;19.10;67.20
47791;DHT22;33547;49.044;1.156;2022-11-18T06:21:01;19.20;67.20
47791;DHT22;33547;49.044;1.156;2022-11-18T06:23:32;19.20;67.30
47791;DHT22;33547;49.044;1.156;2022-11-18T06:25:59;19.30;67.30
47791;DHT22;33547;49.044;1.156;2022-11-18T06:28:26;19.20;67.20
47791;DHT22;33547;49.044;1.156;2022-11-18T06:30:53;19.30;67.20
47791;DHT22;33547;49.044;1.156;2022-11-18T06:33:19;19.30;67.10
47791;DHT22;33547;49.044;1.156;2022-11-18T06:35:44;19.30;67.10
47791;DHT22;33547;49.044;1.156;2022-11-18T06:38:10;19.40;67.20
47791;DHT22;33547;49.044;1.156;2022-11-18T06:40:36;19.40;67.00
47791;DHT22;33547;49.044;1.156;2022-11-18T06:43:09;19.40;67.00
47791;DHT22;33547;49.044;1.156;2022-11-18T06:45:58;19.50;67.40
47791;DHT22;33547;49.044;1.156;2022-11-18T06:48:44;19.40;67.30
47791;DHT22;33547;49.044;1.156;2022-11-18T06:51:12;19.40;67.40
47791;DHT22;33547;49.044;1.156;2022-11-18T06:53:38;19.40;67.40
47791;DHT22;33547;49.044;1.156;2022-11-18T06:56:09;19.40;67.40
47791;DHT22;33547;49.044;1.156;2022-11-18T06:58:37;19.40;67.60
47791;DHT22;33547;49.044;1.156;2022-11-18T07:01:18;19.40;67.60
47791;DHT22;33547;49.044;1.156;2022-11-18T07:03:46;19.50;67.50
47791;DHT22;33547;49.044;1.156;2022-11-18T07:06:15;19.50;67.60
47791;DHT22;33547;49.044;1.156;2022-11-18T07:08:43;19.50;67.60
47791;DHT22;33547;49.044;1.156;2022-11-18T07:11:11;19.50;67.50
47791;DHT22;33547;49.044;1.156;2022-11-18T07:13:39;19.50;67.70
47791;DHT22;33547;49.044;1.156;2022-11-18T07:16:10;19.60;67.70
47791;DHT22;33547;49.044;1.156;2022-11-18T07:18:38;19.50;67.30
47791;DHT22;33547;49.044;1.156;2022-11-18T07:21:14;19.60;67.10
47791;DHT22;33547;49.044;1.156;2022-11-18T07:23:41;19.60;67.00
47791;DHT22;33547;49.044;1.156;2022-11-18T07:26:08;19.60;66.80
47791;DHT22;33547;49.044;1.156;2022-11-18T07:28:34;19.60;66.80
47791;DHT22;33547;49.044;1.156;2022-11-18T07:31:29;19.60;66.70
47791;DHT22;33547;49.044;1.156;2022-11-18T07:33:55;19.60;66.50
47791;DHT22;33547;49.044;1.156;2022-11-18T07:36:24;19.60;66.50
47791;DHT22;33547;49.044;1.156;2022-11-18T07:38:51;19.60;66.00
47791;DHT22;33547;49.044;1.156;2022-11-18T07:41:22;19.60;66.20
47791;DHT22;33547;49.044;1.156;2022-11-18T07:43:52;19.60;65.80
47791;DHT22;33547;49.044;1.156;2022-11-18T07:46:25;19.60;65.80
47791;DHT22;33547;49.044;1.156;2022-11-18T07:48:53;19.60;65.60
47791;DHT22;33547;49.044;1.156;2022-11-18T07:51:23;19.50;65.30
47791;DHT22;33547;49.044;1.156;2022-11-18T07:53:50;19.50;65.50
47791;DHT22;33547;49.044;1.156;2022-11-18T07:56:17;19.50;65.20
47791;DHT22;33547;49.044;1.156;2022-11-18T07:58:44;19.50;65.30
47791;DHT22;33547;49.044;1.156;2022-11-18T08:01:13;19.50;65.30
47791;DHT22;33547;49.044;1.156;2022-11-18T08:03:41;19.50;65.60
47791;DHT22;33547;49.044;1.156;2022-11-18T08:06:09;19.50;65.40
47791;DHT22;33547;49.044;1.156;2022-11-18T08:08:37;19.50;65.50
47791;DHT22;33547;49.044;1.156;2022-11-18T08:11:07;19.50;65.50
47791;DHT22;33547;49.044;1.156;2022-11-18T08:13:35;19.60;65.50
47791;DHT22;33547;49.044;1.156;2022-11-18T08:16:02;19.60;65.40
47791;DHT22;33547;49.044;1.156;2022-11-18T08:18:30;19.70;65.50
47791;DHT22;33547;49.044;1.156;2022-11-18T08:21:01;19.60;65.50
47791;DHT22;33547;49.044;1.156;2022-11-18T08:23:28;19.70;65.50
47791;DHT22;33547;49.044;1.156;2022-11-18T08:26:01;19.70;65.50
47791;DHT22;33547;49.044;1.156;2022-11-18T08:28:29;19.70;65.40
47791;DHT22;33547;49.044;1.156;2022-11-18T08:30:54;19.70;65.50
47791;DHT22;33547;49.044;1.156;2022-11-18T08:33:20;19.70;65.40
47791;DHT22;33547;49.044;1.156;2022-11-18T08:35:46;19.70;65.30
47791;DHT22;33547;49.044;1.156;2022-11-18T08:38:12;19.70;65.10
47791;DHT22;33547;49.044;1.156;2022-11-18T08:40:40;19.80;65.30
47791;DHT22;33547;49.044;1.156;2022-11-18T08:43:11;19.80;65.20
47791;DHT22;33547;49.044;1.156;2022-11-18T08:45:39;19.80;65.10
47791;DHT22;33547;49.044;1.156;2022-11-18T08:48:05;19.80;65.10
47791;DHT22;33547;49.044;1.156;2022-11-18T08:50:31;19.80;65.00
47791;DHT22;33547;49.044;1.156;2022-11-18T08:52:56;19.80;64.90
47791;DHT22;33547;49.044;1.156;2022-11-18T08:55:22;19.80;65.00
47791;DHT22;33547;49.044;1.156;2022-11-18T08:57:48;19.70;64.50
47791;DHT22;33547;49.044;1.156;2022-11-18T09:00:14;19.80;64.90
47791;DHT22;33547;49.044;1.156;2022-11-18T09:02:40;19.80;64.50
47791;DHT22;33547;49.044;1.156;2022-11-18T09:05:06;19.80;64.50
47791;DHT22;33547;49.044;1.156;2022-11-18T09:07:32;19.70;63.90
47791;DHT22;33547;49.044;1.156;2022-11-18T09:09:58;19.80;64.00
47791;DHT22;33547;49.044;1.156;2022-11-18T09:12:24;19.70;63.80
47791;DHT22;33547;49.044;1.156;2022-11-18T09:14:50;19.70;63.80
47791;DHT22;33547;49.044;1.156;2022-11-18T09:17:15;19.70;63.80
47791;DHT22;33547;49.044;1.156;2022-11-18T09:19:42;19.80;63.70
47791;DHT22;33547;49.044;1.156;2022-11-18T09:22:08;19.80;63.80
47791;DHT22;33547;49.044;1.156;2022-11-18T09:24:34;19.70;63.40
47791;DHT22;33547;49.044;1.156;2022-11-18T09:27:05;19.80;63.60
47791;DHT22;33547;49.044;1.156;2022-11-18T09:29:31;19.80;63.60
47791;DHT22;33547;49.044;1.156;2022-11-18T09:31:57;19.80;63.30
47791;DHT22;33547;49.044;1.156;2022-11-18T09:34:26;19.80;63.30
47791;DHT22;33547;49.044;1.156;2022-11-18T09:36:53;19.90;63.40
47791;DHT22;33547;49.044;1.156;2022-11-18T09:39:22;19.90;63.30
47791;DHT22;33547;49.044;1.156;2022-11-18T09:42:13;19.90;63.30
47791;DHT22;33547;49.044;1.156;2022-11-18T09:47:36;20.00;63.30
47791;DHT22;33547;49.044;1.156;2022-11-18T09:50:31;20.00;63.20
47791;DHT22;33547;49.044;1.156;2022-11-18T09:55:50;20.10;63.20
47791;DHT22;33547;49.044;1.156;2022-11-18T09:58:21;20.10;63.20
47791;DHT22;33547;49.044;1.156;2022-11-18T10:00:57;20.10;63.00
47791;DHT22;33547;49.044;1.156;2022-11-18T10:03:30;20.10;63.00
47791;DHT22;33547;49.044;1.156;2022-11-18T10:11:23;20.20;63.00
47791;DHT22;33547;49.044;1.156;2022-11-18T10:17:06;20.20;62.90
47791;DHT22;33547;49.044;1.156;2022-11-18T10:25:58;20.20;62.70
47791;DHT22;33547;49.044;1.156;2022-11-18T10:28:27;20.20;62.20
47791;DHT22;33547;49.044;1.156;2022-11-18T10:31:05;20.20;62.20
47791;DHT22;33547;49.044;1.156;2022-11-18T10:33:33;20.20;62.10
47791;DHT22;33547;49.044;1.156;2022-11-18T10:38:42;20.20;62.20
47791;DHT22;33547;49.044;1.156;2022-11-18T10:41:12;20.20;61.90
47791;DHT22;33547;49.044;1.156;2022-11-18T10:46:33;20.20;61.80
47791;DHT22;33547;49.044;1.156;2022-11-18T10:52:10;20.20;61.90
47791;DHT22;33547;49.044;1.156;2022-11-18T10:54:37;20.20;61.90
47791;DHT22;33547;49.044;1.156;2022-11-18T10:57:21;20.20;61.40
47791;DHT22;33547;49.044;1.156;2022-11-18T10:59:54;20.20;61.90
47791;DHT22;33547;49.044;1.156;2022-11-18T11:05:18;20.20;61.20
47791;DHT22;33547;49.044;1.156;2022-11-18T11:07:45;20.10;61.80
47791;DHT22;33547;49.044;1.156;2022-11-18T11:12:55;20.10;61.40
47791;DHT22;33547;49.044;1.156;2022-11-18T11:15:33;20.20;61.80
47791;DHT22;33547;49.044;1.156;2022-11-18T11:18:39;20.20;61.60
47791;DHT22;33547;49.044;1.156;2022-11-18T11:21:15;20.10;61.90
47791;DHT22;33547;49.044;1.156;2022-11-18T11:23:42;20.10;61.90
47791;DHT22;33547;49.044;1.156;2022-11-18T11:28:41;20.10;62.10
47791;DHT22;33547;49.044;1.156;2022-11-18T11:37:40;20.10;62.30
47791;DHT22;33547;49.044;1.156;2022-11-18T11:51:53;20.10;62.00
47791;DHT22;33547;49.044;1.156;2022-11-18T11:57:50;20.00;61.90
47791;DHT22;33547;49.044;1.156;2022-11-18T12:00:39;20.00;62.30
47791;DHT22;33547;49.044;1.156;2022-11-18T12:03:32;20.00;61.90
47791;DHT22;33547;49.044;1.156;2022-11-18T12:06:10;20.00;62.10
47791;DHT22;33547;49.044;1.156;2022-11-18T12:08:46;20.00;61.90
47791;DHT22;33547;49.044;1.156;2022-11-18T12:11:39;20.00;61.90
47791;DHT22;33547;49.044;1.156;2022-11-18T12:19:39;19.90;62.00
47791;DHT22;33547;49.044;1.156;2022-11-18T12:22:05;19.90;61.80
47791;DHT22;33547;49.044;1.156;2022-11-18T12:32:38;19.90;62.00
47791;DHT22;33547;49.044;1.156;2022-11-18T12:40:04;19.90;62.10
47791;DHT22;33547;49.044;1.156;2022-11-18T12:42:39;19.90;62.10
47791;DHT22;33547;49.044;1.156;2022-11-18T12:48:26;19.90;62.50
47791;DHT22;33547;49.044;1.156;2022-11-18T12:50:54;19.90;62.50
47791;DHT22;33547;49.044;1.156;2022-11-18T12:53:50;19.80;62.60
47791;DHT22;33547;49.044;1.156;2022-11-18T12:59:00;19.80;62.70
47791;DHT22;33547;49.044;1.156;2022-11-18T13:01:28;19.80;62.40
47791;DHT22;33547;49.044;1.156;2022-11-18T13:04:15;19.80;62.00
47791;DHT22;33547;49.044;1.156;2022-11-18T13:06:44;19.80;62.00
47791;DHT22;33547;49.044;1.156;2022-11-18T13:09:19;19.70;62.10
47791;DHT22;33547;49.044;1.156;2022-11-18T13:12:04;19.70;61.90
47791;DHT22;33547;49.044;1.156;2022-11-18T13:14:40;19.60;61.40
47791;DHT22;33547;49.044;1.156;2022-11-18T13:17:35;19.70;61.50
47791;DHT22;33547;49.044;1.156;2022-11-18T13:20:28;19.60;59.70
47791;DHT22;33547;49.044;1.156;2022-11-18T13:25:58;19.50;61.20
47791;DHT22;33547;49.044;1.156;2022-11-18T13:34:24;19.40;58.60
47791;DHT22;33547;49.044;1.156;2022-11-18T13:36:52;19.40;59.90
47791;DHT22;33547;49.044;1.156;2022-11-18T13:42:05;19.30;57.40
47791;DHT22;33547;49.044;1.156;2022-11-18T13:44:36;19.30;58.10
47791;DHT22;33547;49.044;1.156;2022-11-18T13:55:27;19.10;56.90
47791;DHT22;33547;49.044;1.156;2022-11-18T13:58:04;19.00;58.50
47791;DHT22;33547;49.044;1.156;2022-11-18T14:00:34;19.00;56.50
47791;DHT22;33547;49.044;1.156;2022-11-18T14:03:05;19.00;57.60
47791;DHT22;33547;49.044;1.156;2022-11-18T14:05:55;19.00;56.40
47791;DHT22;33547;49.044;1.156;2022-11-18T14:08:33;18.90;56.40
47791;DHT22;33547;49.044;1.156;2022-11-18T14:11:00;18.90;58.00
47791;DHT22;33547;49.044;1.156;2022-11-18T14:13:32;18.90;59.10
47791;DHT22;33547;49.044;1.156;2022-11-18T14:18:44;19.00;57.20
47791;DHT22;33547;49.044;1.156;2022-11-18T14:21:11;19.00;57.10
47791;DHT22;33547;49.044;1.156;2022-11-18T14:23:41;19.00;58.00
47791;DHT22;33547;49.044;1.156;2022-11-18T14:26:08;19.00;57.40
47791;DHT22;33547;49.044;1.156;2022-11-18T14:28:36;19.00;57.90
47791;DHT22;33547;49.044;1.156;2022-11-18T14:33:37;19.10;58.20
47791;DHT22;33547;49.044;1.156;2022-11-18T14:36:16;19.10;58.60
47791;DHT22;33547;49.044;1.156;2022-11-18T14:38:46;19.10;58.30
47791;DHT22;33547;49.044;1.156;2022-11-18T14:41:16;19.10;57.60
47791;DHT22;33547;49.044;1.156;2022-11-18T14:44:02;19.10;57.40
47791;DHT22;33547;49.044;1.156;2022-11-18T14:46:29;19.10;57.70
47791;DHT22;33547;49.044;1.156;2022-11-18T14:48:56;19.10;57.20
47791;DHT22;33547;49.044;1.156;2022-11-18T14:51:22;19.10;57.60
47791;DHT22;33547;49.044;1.156;2022-11-18T14:53:47;19.10;57.80
47791;DHT22;33547;49.044;1.156;2022-11-18T14:56:16;19.10;57.50
47791;DHT22;33547;49.044;1.156;2022-11-18T14:58:45;19.00;57.90
47791;DHT22;33547;49.044;1.156;2022-11-18T15:01:11;19.10;58.10
47791;DHT22;33547;49.044;1.156;2022-11-18T15:03:38;19.10;58.10
47791;DHT22;33547;49.044;1.156;2022-11-18T15:06:13;19.00;58.50
47791;DHT22;33547;49.044;1.156;2022-11-18T15:08:41;19.00;58.50
47791;DHT22;33547;49.044;1.156;2022-11-18T15:11:10;19.10;58.20
47791;DHT22;33547;49.044;1.156;2022-11-18T15:13:37;19.10;57.80
47791;DHT22;33547;49.044;1.156;2022-11-18T15:16:21;19.10;57.20
47791;DHT22;33547;49.044;1.156;2022-11-18T15:18:51;19.00;57.30
47791;DHT22;33547;49.044;1.156;2022-11-18T15:21:19;19.00;57.40
47791;DHT22;33547;49.044;1.156;2022-11-18T15:23:45;19.00;57.30
47791;DHT22;33547;49.044;1.156;2022-11-18T15:26:26;19.00;56.60
47791;DHT22;33547;49.044;1.156;2022-11-18T15:28:54;19.00;56.70
47791;DHT22;33547;49.044;1.156;2022-11-18T15:31:22;19.00;56.30
47791;DHT22;33547;49.044;1.156;2022-11-18T15:33:49;19.00;56.80
47791;DHT22;33547;49.044;1.156;2022-11-18T15:36:25;19.00;57.30
47791;DHT22;33547;49.044;1.156;2022-11-18T15:38:53;19.00;57.70
47791;DHT22;33547;49.044;1.156;2022-11-18T15:41:27;19.00;57.10
47791;DHT22;33547;49.044;1.156;2022-11-18T15:43:55;19.00;57.30
47791;DHT22;33547;49.044;1.156;2022-11-18T15:46:23;19.00;57.70
47791;DHT22;33547;49.044;1.156;2022-11-18T15:48:51;19.00;57.70
47791;DHT22;33547;49.044;1.156;2022-11-18T15:53:43;18.90;57.60
47791;DHT22;33547;49.044;1.156;2022-11-18T15:56:25;19.00;57.90
47791;DHT22;33547;49.044;1.156;2022-11-18T16:01:21;19.00;58.00
47791;DHT22;33547;49.044;1.156;2022-11-18T16:03:48;19.00;58.20
47791;DHT22;33547;49.044;1.156;2022-11-18T16:06:14;19.00;58.20
47791;DHT22;33547;49.044;1.156;2022-11-18T16:08:40;19.00;58.50
47791;DHT22;33547;49.044;1.156;2022-11-18T16:11:06;19.00;58.70
47791;DHT22;33547;49.044;1.156;2022-11-18T16:13:52;19.00;58.80
47791;DHT22;33547;49.044;1.156;2022-11-18T16:16:22;19.00;58.90
47791;DHT22;33547;49.044;1.156;2022-11-18T16:18:57;19.00;59.00
47791;DHT22;33547;49.044;1.156;2022-11-18T16:21:25;19.00;59.10
47791;DHT22;33547;49.044;1.156;2022-11-18T16:23:56;19.10;59.20
47791;DHT22;33547;49.044;1.156;2022-11-18T16:26:24;19.10;59.30
47791;DHT22;33547;49.044;1.156;2022-11-18T16:28:50;19.10;59.30
47791;DHT22;33547;49.044;1.156;2022-11-18T16:31:16;19.10;59.40
47791;DHT22;33547;49.044;1.156;2022-11-18T16:34:09;19.10;59.40
47791;DHT22;33547;49.044;1.156;2022-11-18T16:36:36;19.20;59.50
47791;DHT22;33547;49.044;1.156;2022-11-18T16:39:10;19.20;59.50
47791;DHT22;33547;49.044;1.156;2022-11-18T16:41:38;19.20;59.60
47791;DHT22;33547;49.044;1.156;2022-11-18T16:44:10;19.20;59.50
47791;DHT22;33547;49.044;1.156;2022-11-18T16:46:41;19.20;59.50
47791;DHT22;33547;49.044;1.156;2022-11-18T16:49:11;19.20;59.50
47791;DHT22;33547;49.044;1.156;2022-11-18T16:51:42;19.20;59.60
47791;DHT22;33547;49.044;1.156;2022-11-18T16:54:20;19.20;59.50
47791;DHT22;33547;49.044;1.156;2022-11-18T16:56:48;19.30;59.60
47791;DHT22;33547;49.044;1.156;2022-11-18T16:59:25;19.20;59.50
47791;DHT22;33547;49.044;1.156;2022-11-18T17:01:54;19.20;59.50
47791;DHT22;33547;49.044;1.156;2022-11-18T17:04:21;19.20;59.50
47791;DHT22;33547;49.044;1.156;2022-11-18T17:06:49;19.20;59.60
47791;DHT22;33547;49.044;1.156;2022-11-18T17:09:17;19.30;59.50
47791;DHT22;33547;49.044;1.156;2022-11-18T17:11:47;19.30;59.30
47791;DHT22;33547;49.044;1.156;2022-11-18T17:14:14;19.30;59.40
47791;DHT22;33547;49.044;1.156;2022-11-18T17:16:40;19.30;59.20
47791;DHT22;33547;49.044;1.156;2022-11-18T17:19:08;19.30;59.20
47791;DHT22;33547;49.044;1.156;2022-11-18T17:21:37;19.30;59.10
47791;DHT22;33547;49.044;1.156;2022-11-18T17:24:04;19.30;59.30
47791;DHT22;33547;49.044;1.156;2022-11-18T17:26:30;19.30;59.20
47791;DHT22;33547;49.044;1.156;2022-11-18T17:28:56;19.30;59.00
47791;DHT22;33547;49.044;1.156;2022-11-18T17:31:23;19.20;58.90
47791;DHT22;33547;49.044;1.156;2022-11-18T17:33:53;19.30;59.00
47791;DHT22;33547;49.044;1.156;2022-11-18T17:36:22;19.30;58.90
47791;DHT22;33547;49.044;1.156;2022-11-18T17:38:50;19.30;58.80
47791;DHT22;33547;49.044;1.156;2022-11-18T17:41:19;19.20;58.80
47791;DHT22;33547;49.044;1.156;2022-11-18T17:44:07;19.20;58.80
47791;DHT22;33547;49.044;1.156;2022-11-18T17:46:35;19.20;58.80
47791;DHT22;33547;49.044;1.156;2022-11-18T17:49:03;19.20;58.80
47791;DHT22;33547;49.044;1.156;2022-11-18T17:51:30;19.20;58.80
47791;DHT22;33547;49.044;1.156;2022-11-18T17:53:57;19.20;58.80
47791;DHT22;33547;49.044;1.156;2022-11-18T17:56:23;19.20;58.80
47791;DHT22;33547;49.044;1.156;2022-11-18T17:58:49;19.20;59.00
47791;DHT22;33547;49.044;1.156;2022-11-18T18:01:17;19.10;58.90
47791;DHT22;33547;49.044;1.156;2022-11-18T18:03:45;19.10;59.00
47791;DHT22;33547;49.044;1.156;2022-11-18T18:06:12;19.10;58.90
47791;DHT22;33547;49.044;1.156;2022-11-18T18:08:39;19.10;58.90
47791;DHT22;33547;49.044;1.156;2022-11-18T18:11:09;19.10;58.90